createdAt,value
2023-02-05T00:04:15.538Z,-2.27
2023-02-05T00:09:18.562Z,-2.24
2023-02-05T00:14:22.647Z,-2.26
2023-02-05T00:19:43.057Z,-2.25
2023-02-05T00:24:46.427Z,-2.28
2023-02-05T00:29:49.438Z,-2.28
2023-02-05T00:34:52.496Z,-2.30
2023-02-05T00:39:55.551Z,-2.32
2023-02-05T00:44:58.387Z,-2.36
2023-02-05T00:50:01.662Z,-2.37
2023-02-05T00:55:05.276Z,-2.42
2023-02-05T01:00:09.278Z,-2.44
2023-02-05T01:05:12.763Z,-2.47
2023-02-05T01:10:16.418Z,-2.47
2023-02-05T01:15:20.060Z,-2.52
2023-02-05T01:20:22.863Z,-2.53
2023-02-05T01:25:25.886Z,-2.57
2023-02-05T01:30:28.678Z,-2.61
2023-02-05T01:35:32.637Z,-2.66
2023-02-05T01:40:35.890Z,-2.70
2023-02-05T01:45:50.876Z,-2.72
2023-02-05T01:50:59.685Z,-2.74
2023-02-05T01:56:20.117Z,-2.72
2023-02-05T02:01:24.767Z,-2.70
2023-02-05T02:06:27.747Z,-2.67
2023-02-05T02:11:36.647Z,-2.68
2023-02-05T02:16:40.767Z,-2.67
2023-02-05T02:22:28.008Z,-2.69
2023-02-05T02:27:45.941Z,-2.75
2023-02-05T02:33:21.605Z,-2.79
2023-02-05T02:38:34.264Z,-2.84
2023-02-05T02:43:54.756Z,-2.91
2023-02-05T02:49:05.293Z,-2.97
2023-02-05T02:54:14.056Z,-3.06
2023-02-05T02:59:28.659Z,-3.14
2023-02-05T03:04:39.081Z,-3.20
2023-02-05T03:09:56.893Z,-3.24
2023-02-05T03:15:00.580Z,-3.26
2023-02-05T03:20:19.338Z,-3.30
2023-02-05T03:25:25.276Z,-3.32
2023-02-05T03:30:57.245Z,-3.35
2023-02-05T03:36:49.052Z,-3.38
2023-02-05T03:42:06.955Z,-3.40
2023-02-05T03:47:19.432Z,-3.45
2023-02-05T03:52:55.387Z,-3.52
2023-02-05T03:58:10.641Z,-3.52
2023-02-05T04:03:15.410Z,-3.53
2023-02-05T04:08:18.398Z,-3.57
2023-02-05T04:13:21.359Z,-3.64
2023-02-05T04:18:24.487Z,-3.61
2023-02-05T04:23:27.472Z,-3.61
2023-02-05T04:28:30.921Z,-3.57
2023-02-05T04:33:33.891Z,-3.50
2023-02-05T04:38:37.018Z,-3.42
2023-02-05T04:43:39.966Z,-3.35
2023-02-05T04:48:42.980Z,-3.29
2023-02-05T04:53:45.687Z,-3.26
2023-02-05T04:58:48.559Z,-3.22
2023-02-05T05:03:51.763Z,-3.20
2023-02-05T05:08:54.774Z,-3.19
2023-02-05T05:13:58.203Z,-3.28
2023-02-05T05:19:01.206Z,-3.37
2023-02-05T05:24:04.516Z,-3.45
2023-02-05T05:29:07.670Z,-3.52
2023-02-05T05:34:10.689Z,-3.56
2023-02-05T05:39:33.467Z,-3.59
2023-02-05T05:44:36.270Z,-3.67
2023-02-05T05:49:39.225Z,-3.76
2023-02-05T05:54:42.272Z,-3.86
2023-02-05T05:59:45.263Z,-3.91
2023-02-05T06:04:48.450Z,-3.97
2023-02-05T06:09:51.501Z,-4.06
2023-02-05T06:14:54.223Z,-4.15
2023-02-05T06:19:57.255Z,-4.26
2023-02-05T06:25:00.255Z,-4.39
2023-02-05T06:30:04.455Z,-4.47
2023-02-05T06:35:07.935Z,-4.49
2023-02-05T06:40:11.521Z,-4.53
2023-02-05T06:45:14.948Z,-4.58
2023-02-05T06:50:18.028Z,-4.59
2023-02-05T06:55:21.418Z,-4.62
2023-02-05T07:00:24.555Z,-4.63
2023-02-05T07:05:27.363Z,-4.51
2023-02-05T07:10:30.649Z,-4.40
2023-02-05T07:15:37.707Z,-4.35
2023-02-05T07:20:40.727Z,-4.04
2023-02-05T07:25:43.595Z,-2.76
2023-02-05T07:30:47.901Z,-1.56
2023-02-05T07:35:50.641Z,-0.83
2023-02-05T07:40:53.571Z,-0.10
2023-02-05T07:46:02.469Z,0.49
2023-02-05T07:51:07.054Z,0.85
2023-02-05T07:56:10.064Z,0.84
2023-02-05T08:01:13.122Z,0.86
2023-02-05T08:06:16.697Z,0.94
2023-02-05T08:11:20.075Z,1.02
2023-02-05T08:16:22.865Z,1.19
2023-02-05T08:21:26.006Z,1.41
2023-02-05T08:26:28.904Z,2.04
2023-02-05T08:31:32.683Z,2.24
2023-02-05T08:36:35.794Z,2.39
2023-02-05T08:41:38.932Z,2.71
2023-02-05T08:46:49.920Z,2.85
2023-02-05T08:51:53.296Z,3.08
2023-02-05T08:56:56.412Z,3.22
2023-02-05T09:01:59.631Z,3.23
2023-02-05T09:07:02.381Z,2.50
2023-02-05T09:12:06.085Z,2.60
2023-02-05T09:17:10.980Z,2.39
2023-02-05T09:22:14.008Z,2.62
2023-02-05T09:27:17.040Z,2.25
2023-02-05T09:32:20.033Z,1.70
2023-02-05T09:37:22.892Z,1.29
2023-02-05T09:42:52.029Z,0.91
2023-02-05T09:48:04.794Z,0.65
2023-02-05T09:53:13.481Z,0.45
2023-02-05T09:58:26.673Z,0.63
2023-02-05T10:03:42.975Z,0.75
2023-02-05T10:08:48.778Z,0.84
2023-02-05T10:14:17.286Z,0.84
2023-02-05T10:20:03.272Z,0.67
2023-02-05T10:25:09.585Z,0.64
2023-02-05T10:30:52.757Z,0.69
2023-02-05T10:36:06.861Z,0.57
2023-02-05T10:41:45.641Z,0.87
2023-02-05T10:46:54.089Z,1.70
2023-02-05T10:51:56.958Z,2.27
2023-02-05T10:57:00.876Z,2.63
2023-02-05T11:02:10.172Z,2.70
2023-02-05T11:07:26.331Z,3.17
2023-02-05T11:12:32.951Z,3.78
2023-02-05T11:17:38.031Z,3.57
2023-02-05T11:22:40.893Z,3.25
2023-02-05T11:27:56.864Z,3.16
2023-02-05T11:33:27.602Z,3.29
2023-02-05T11:38:57.193Z,3.41
2023-02-05T11:44:02.316Z,3.23
2023-02-05T11:49:05.711Z,3.10
2023-02-05T11:54:27.158Z,2.48
2023-02-05T11:59:32.334Z,1.92
2023-02-05T12:04:47.216Z,1.45
2023-02-05T12:09:53.069Z,1.25
2023-02-05T12:15:14.407Z,1.20
2023-02-05T12:20:23.374Z,1.07
2023-02-05T12:25:53.292Z,0.80
2023-02-05T12:31:12.147Z,0.67
2023-02-05T12:37:01.853Z,0.66
2023-02-05T12:42:11.973Z,0.67
2023-02-05T12:47:32.776Z,0.69
2023-02-05T12:53:27.654Z,0.65
2023-02-05T12:58:42.442Z,0.58
2023-02-05T13:03:51.582Z,0.47
2023-02-05T13:43:46.000Z,0.42
2023-02-05T13:49:50.706Z,0.29
2023-02-05T13:55:24.101Z,0.27
2023-02-05T14:00:28.381Z,0.30
2023-02-05T14:05:39.740Z,0.37
2023-02-05T14:10:45.670Z,0.41
2023-02-05T14:15:50.155Z,0.40
2023-02-05T14:20:53.090Z,0.40
2023-02-05T14:26:07.381Z,0.44
2023-02-05T14:31:47.794Z,0.43
2023-02-05T14:36:51.498Z,0.39
2023-02-05T14:41:59.270Z,0.32
2023-02-05T14:47:20.061Z,0.20
2023-02-05T14:52:22.865Z,0.10
2023-02-05T14:58:03.179Z,0.01
2023-02-05T15:03:06.189Z,-0.08
2023-02-05T15:08:36.692Z,-0.25
2023-02-05T15:13:40.396Z,-0.44
2023-02-05T15:19:06.199Z,-0.60
2023-02-05T15:24:24.124Z,-0.73
2023-02-05T15:29:41.617Z,-0.87
2023-02-05T15:34:51.210Z,-1.01
2023-02-05T15:39:58.357Z,-1.13
2023-02-05T15:45:45.209Z,-1.28
2023-02-05T15:50:56.265Z,-1.43
2023-02-05T15:56:13.077Z,-1.66
2023-02-05T16:01:29.649Z,-1.95
2023-02-05T16:06:37.006Z,-2.17
2023-02-05T16:11:43.084Z,-2.30
2023-02-05T16:17:04.495Z,-2.39
2023-02-05T16:22:32.340Z,-2.47
2023-02-05T16:27:46.386Z,-2.57
2023-02-05T16:32:53.497Z,-2.63
2023-02-05T16:37:57.544Z,-2.67
2023-02-05T16:43:05.806Z,-2.71
2023-02-05T16:48:27.156Z,-2.76
2023-02-05T16:53:37.035Z,-2.81
2023-02-05T16:58:53.870Z,-2.85
2023-02-05T17:03:57.542Z,-2.92
2023-02-05T17:09:01.134Z,-3.01
2023-02-05T17:14:35.742Z,-3.07
2023-02-05T17:19:38.791Z,-3.17
2023-02-05T17:24:48.984Z,-3.34
2023-02-05T17:29:52.081Z,-3.46
2023-02-05T17:34:55.433Z,-3.54
2023-02-05T17:39:58.211Z,-3.66
2023-02-05T17:45:02.213Z,-3.62
2023-02-05T17:50:05.720Z,-3.62
2023-02-05T17:55:14.361Z,-3.66
2023-02-05T18:00:27.613Z,-3.68
2023-02-05T18:05:30.933Z,-3.72
2023-02-05T18:10:34.178Z,-3.77
2023-02-05T18:15:37.481Z,-3.75
2023-02-05T18:20:40.418Z,-3.70
2023-02-05T18:25:43.181Z,-3.69
2023-02-05T18:30:46.391Z,-3.68
2023-02-05T18:35:49.370Z,-3.69
2023-02-05T18:40:52.652Z,-3.71
2023-02-05T18:45:55.982Z,-3.73
2023-02-05T18:50:58.878Z,-3.79
2023-02-05T18:56:20.434Z,-3.87
2023-02-05T19:01:23.592Z,-3.97
2023-02-05T19:06:26.613Z,-4.05
2023-02-05T19:11:30.974Z,-4.09
2023-02-05T19:16:36.026Z,-4.14
2023-02-05T19:21:39.154Z,-4.24
2023-02-05T19:26:44.202Z,-4.37
2023-02-05T19:31:48.198Z,-4.53
2023-02-05T19:36:51.418Z,-4.69
2023-02-05T19:41:56.086Z,-4.82
2023-02-05T19:46:59.131Z,-4.97
2023-02-05T19:52:02.078Z,-5.09
2023-02-05T19:57:04.980Z,-5.19
2023-02-05T20:02:12.759Z,-5.27
2023-02-05T20:07:16.060Z,-5.39
2023-02-05T20:12:19.276Z,-5.51
2023-02-05T20:17:47.032Z,-5.60
2023-02-05T20:23:08.798Z,-5.72
2023-02-05T20:28:12.209Z,-5.87
2023-02-05T20:33:15.340Z,-6.02
2023-02-05T20:38:18.296Z,-6.05
2023-02-05T20:43:21.787Z,-6.14
2023-02-05T20:48:24.747Z,-6.22
2023-02-05T20:53:27.791Z,-6.29
2023-02-05T20:58:31.722Z,-6.33
2023-02-05T21:03:36.884Z,-6.38
2023-02-05T21:08:41.538Z,-6.44
2023-02-05T21:13:46.625Z,-6.52
2023-02-05T21:18:51.274Z,-6.63
2023-02-05T21:24:01.320Z,-6.69
2023-02-05T21:29:10.191Z,-6.76
2023-02-05T21:34:27.177Z,-6.84
2023-02-05T21:39:30.173Z,-6.86
2023-02-05T21:44:33.121Z,-6.92
2023-02-05T21:49:35.904Z,-6.98
2023-02-05T21:54:39.183Z,-7.02
2023-02-05T21:59:42.117Z,-7.03
2023-02-05T22:04:45.102Z,-7.03
2023-02-05T22:09:48.182Z,-7.05
2023-02-05T22:14:51.087Z,-7.07
2023-02-05T22:19:54.058Z,-7.13
2023-02-05T22:24:57.673Z,-7.19
2023-02-05T22:30:00.653Z,-7.24
2023-02-05T22:35:04.657Z,-7.29
2023-02-05T22:40:08.474Z,-7.29
2023-02-05T22:45:11.815Z,-7.27
2023-02-05T22:50:15.396Z,-7.17
2023-02-05T22:55:18.618Z,-7.18
2023-02-05T23:00:21.360Z,-7.21
2023-02-05T23:05:26.869Z,-7.24
2023-02-05T23:10:29.833Z,-7.30
2023-02-05T23:15:33.291Z,-7.37
2023-02-05T23:20:36.426Z,-7.42
2023-02-05T23:25:39.588Z,-7.46
2023-02-05T23:30:42.813Z,-7.51
2023-02-05T23:35:45.893Z,-7.61
2023-02-05T23:40:49.007Z,-7.65
2023-02-05T23:45:54.155Z,-7.71
2023-02-05T23:50:57.119Z,-7.77
2023-02-05T23:56:00.902Z,-7.83
